sensor_id;sensor_type;location;lat;lon;timestamp;temperature;humidity
59703;DHT22;45570;48.782;8.332;2024-03-22T00:00:14;9.20;99.90
59703;DHT22;45570;48.782;8.332;2024-03-22T00:02:41;9.30;99.90
59703;DHT22;45570;48.782;8.332;2024-03-22T00:05:09;9.40;99.90
59703;DHT22;45570;48.782;8.332;2024-03-22T00:07:35;9.50;99.90
59703;DHT22;45570;48.782;8.332;2024-03-22T00:10:05;9.70;99.90
59703;DHT22;45570;48.782;8.332;2024-03-22T00:12:31;9.80;99.90
59703;DHT22;45570;48.782;8.332;2024-03-22T00:15:00;9.80;99.90
59703;DHT22;45570;48.782;8.332;2024-03-22T00:17:27;10.00;99.90
59703;DHT22;45570;48.782;8.332;2024-03-22T00:19:56;10.10;99.90
59703;DHT22;45570;48.782;8.332;2024-03-22T00:22:23;10.20;99.90
59703;DHT22;45570;48.782;8.332;2024-03-22T00:24:51;10.20;99.90
59703;DHT22;45570;48.782;8.332;2024-03-22T00:27:17;10.10;99.90
59703;DHT22;45570;48.782;8.332;2024-03-22T00:29:45;10.30;99.90
59703;DHT22;45570;48.782;8.332;2024-03-22T00:32:13;10.40;99.90
59703;DHT22;45570;48.782;8.332;2024-03-22T00:34:41;10.30;99.90
59703;DHT22;45570;48.782;8.332;2024-03-22T00:37:08;10.30;99.90
59703;DHT22;45570;48.782;8.332;2024-03-22T00:39:36;10.30;99.90
59703;DHT22;45570;48.782;8.332;2024-03-22T00:42:02;10.30;99.90
59703;DHT22;45570;48.782;8.332;2024-03-22T00:44:30;10.30;99.90
59703;DHT22;45570;48.782;8.332;2024-03-22T00:46:56;10.40;99.90
59703;DHT22;45570;48.782;8.332;2024-03-22T00:49:25;10.40;99.90
59703;DHT22;45570;48.782;8.332;2024-03-22T00:51:52;10.40;99.90
59703;DHT22;45570;48.782;8.332;2024-03-22T00:54:21;10.50;99.90
59703;DHT22;45570;48.782;8.332;2024-03-22T00:56:47;10.50;99.90
59703;DHT22;45570;48.782;8.332;2024-03-22T00:59:15;10.40;99.90
59703;DHT22;45570;48.782;8.332;2024-03-22T01:01:42;10.40;99.90
59703;DHT22;45570;48.782;8.332;2024-03-22T01:04:10;10.50;99.90
59703;DHT22;45570;48.782;8.332;2024-03-22T01:06:38;10.60;99.90
59703;DHT22;45570;48.782;8.332;2024-03-22T01:09:05;10.50;99.90
59703;DHT22;45570;48.782;8.332;2024-03-22T01:11:32;10.50;99.90
59703;DHT22;45570;48.782;8.332;2024-03-22T01:14:00;10.40;99.90
59703;DHT22;45570;48.782;8.332;2024-03-22T01:16:26;10.40;99.90
59703;DHT22;45570;48.782;8.332;2024-03-22T01:18:54;10.40;99.90
59703;DHT22;45570;48.782;8.332;2024-03-22T01:21:20;10.40;99.90
59703;DHT22;45570;48.782;8.332;2024-03-22T01:23:52;10.40;99.90
59703;DHT22;45570;48.782;8.332;2024-03-22T01:26:19;10.30;99.90
59703;DHT22;45570;48.782;8.332;2024-03-22T01:28:46;10.30;99.90
59703;DHT22;45570;48.782;8.332;2024-03-22T01:31:13;10.30;99.90
59703;DHT22;45570;48.782;8.332;2024-03-22T01:33:42;10.30;99.90
59703;DHT22;45570;48.782;8.332;2024-03-22T01:36:08;10.30;99.90
59703;DHT22;45570;48.782;8.332;2024-03-22T01:38:36;10.30;99.90
59703;DHT22;45570;48.782;8.332;2024-03-22T01:41:04;10.30;99.90
59703;DHT22;45570;48.782;8.332;2024-03-22T01:43:32;10.30;99.90
59703;DHT22;45570;48.782;8.332;2024-03-22T01:45:58;10.30;99.90
59703;DHT22;45570;48.782;8.332;2024-03-22T01:48:26;10.20;99.90
59703;DHT22;45570;48.782;8.332;2024-03-22T01:50:53;10.10;99.90
59703;DHT22;45570;48.782;8.332;2024-03-22T01:53:20;10.00;99.90
59703;DHT22;45570;48.782;8.332;2024-03-22T01:55:47;10.00;99.90
59703;DHT22;45570;48.782;8.332;2024-03-22T01:58:17;10.00;99.90
59703;DHT22;45570;48.782;8.332;2024-03-22T02:00:44;10.00;99.90
59703;DHT22;45570;48.782;8.332;2024-03-22T02:03:12;10.00;99.90
59703;DHT22;45570;48.782;8.332;2024-03-22T02:05:38;10.00;99.90
59703;DHT22;45570;48.782;8.332;2024-03-22T02:08:06;10.00;99.90
59703;DHT22;45570;48.782;8.332;2024-03-22T02:10:33;10.00;99.90
59703;DHT22;45570;48.782;8.332;2024-03-22T02:13:00;10.00;99.90
59703;DHT22;45570;48.782;8.332;2024-03-22T02:15:29;10.00;99.90
59703;DHT22;45570;48.782;8.332;2024-03-22T02:17:57;10.00;99.90
59703;DHT22;45570;48.782;8.332;2024-03-22T02:20:24;10.00;99.90
59703;DHT22;45570;48.782;8.332;2024-03-22T02:22:51;10.00;99.90
59703;DHT22;45570;48.782;8.332;2024-03-22T02:25:20;10.00;99.90
59703;DHT22;45570;48.782;8.332;2024-03-22T02:27:47;10.00;99.90
59703;DHT22;45570;48.782;8.332;2024-03-22T02:30:16;10.00;99.90
59703;DHT22;45570;48.782;8.332;2024-03-22T02:32:44;10.10;99.90
59703;DHT22;45570;48.782;8.332;2024-03-22T02:35:10;10.00;99.90
59703;DHT22;45570;48.782;8.332;2024-03-22T02:37:38;10.00;99.90
59703;DHT22;45570;48.782;8.332;2024-03-22T02:40:05;10.10;99.90
59703;DHT22;45570;48.782;8.332;2024-03-22T02:42:34;10.10;99.90
59703;DHT22;45570;48.782;8.332;2024-03-22T02:45:01;10.10;99.90
59703;DHT22;45570;48.782;8.332;2024-03-22T02:47:28;10.10;99.90
59703;DHT22;45570;48.782;8.332;2024-03-22T02:49:55;10.10;99.90
59703;DHT22;45570;48.782;8.332;2024-03-22T02:52:22;10.10;99.90
59703;DHT22;45570;48.782;8.332;2024-03-22T02:54:49;10.10;99.90
59703;DHT22;45570;48.782;8.332;2024-03-22T02:57:16;10.10;99.90
59703;DHT22;45570;48.782;8.332;2024-03-22T02:59:44;10.10;99.90
59703;DHT22;45570;48.782;8.332;2024-03-22T03:02:12;10.20;99.90
59703;DHT22;45570;48.782;8.332;2024-03-22T03:04:38;10.10;99.90
59703;DHT22;45570;48.782;8.332;2024-03-22T03:07:06;10.20;99.90
59703;DHT22;45570;48.782;8.332;2024-03-22T03:09:32;10.20;99.90
59703;DHT22;45570;48.782;8.332;2024-03-22T03:12:00;10.10;99.90
59703;DHT22;45570;48.782;8.332;2024-03-22T03:14:26;10.20;99.90
59703;DHT22;45570;48.782;8.332;2024-03-22T03:16:55;10.20;99.90
59703;DHT22;45570;48.782;8.332;2024-03-22T03:19:22;10.10;99.90
59703;DHT22;45570;48.782;8.332;2024-03-22T03:21:49;10.10;99.90
59703;DHT22;45570;48.782;8.332;2024-03-22T03:24:16;10.10;99.90
59703;DHT22;45570;48.782;8.332;2024-03-22T03:26:43;10.10;99.90
59703;DHT22;45570;48.782;8.332;2024-03-22T03:29:10;10.10;99.90
59703;DHT22;45570;48.782;8.332;2024-03-22T03:31:38;10.10;99.90
59703;DHT22;45570;48.782;8.332;2024-03-22T03:34:06;10.10;99.90
59703;DHT22;45570;48.782;8.332;2024-03-22T03:36:34;10.10;99.90
59703;DHT22;45570;48.782;8.332;2024-03-22T03:39:00;10.00;99.90
59703;DHT22;45570;48.782;8.332;2024-03-22T03:41:28;10.10;99.90
59703;DHT22;45570;48.782;8.332;2024-03-22T03:43:54;10.00;99.90
59703;DHT22;45570;48.782;8.332;2024-03-22T03:46:22;10.00;99.90
59703;DHT22;45570;48.782;8.332;2024-03-22T03:48:49;10.00;99.90
59703;DHT22;45570;48.782;8.332;2024-03-22T03:51:18;10.10;99.90
59703;DHT22;45570;48.782;8.332;2024-03-22T03:53:45;10.00;99.90
59703;DHT22;45570;48.782;8.332;2024-03-22T03:56:12;10.00;99.90
59703;DHT22;45570;48.782;8.332;2024-03-22T03:58:41;10.00;99.90
59703;DHT22;45570;48.782;8.332;2024-03-22T04:01:08;10.00;99.90
59703;DHT22;45570;48.782;8.332;2024-03-22T04:03:35;9.90;99.90
59703;DHT22;45570;48.782;8.332;2024-03-22T04:06:03;9.90;99.90
59703;DHT22;45570;48.782;8.332;2024-03-22T04:08:30;9.90;99.90
59703;DHT22;45570;48.782;8.332;2024-03-22T04:10:59;10.10;99.90
59703;DHT22;45570;48.782;8.332;2024-03-22T04:13:25;10.00;99.90
59703;DHT22;45570;48.782;8.332;2024-03-22T04:15:53;10.00;99.90
59703;DHT22;45570;48.782;8.332;2024-03-22T04:18:20;9.90;99.90
59703;DHT22;45570;48.782;8.332;2024-03-22T04:20:53;10.00;99.90
59703;DHT22;45570;48.782;8.332;2024-03-22T04:23:19;10.00;99.90
59703;DHT22;45570;48.782;8.332;2024-03-22T04:25:53;10.00;99.90
59703;DHT22;45570;48.782;8.332;2024-03-22T04:28:19;10.00;99.90
59703;DHT22;45570;48.782;8.332;2024-03-22T04:30:54;9.90;99.90
59703;DHT22;45570;48.782;8.332;2024-03-22T04:33:20;9.90;99.90
59703;DHT22;45570;48.782;8.332;2024-03-22T04:35:48;9.90;99.90
59703;DHT22;45570;48.782;8.332;2024-03-22T04:38:15;9.90;99.90
59703;DHT22;45570;48.782;8.332;2024-03-22T04:40:43;9.90;99.90
59703;DHT22;45570;48.782;8.332;2024-03-22T04:43:14;9.90;99.90
59703;DHT22;45570;48.782;8.332;2024-03-22T04:45:41;9.80;99.90
59703;DHT22;45570;48.782;8.332;2024-03-22T04:48:09;9.80;99.90
59703;DHT22;45570;48.782;8.332;2024-03-22T04:50:36;9.80;99.90
59703;DHT22;45570;48.782;8.332;2024-03-22T04:53:03;9.80;99.90
59703;DHT22;45570;48.782;8.332;2024-03-22T04:55:31;9.90;99.90
59703;DHT22;45570;48.782;8.332;2024-03-22T04:57:59;9.80;99.90
59703;DHT22;45570;48.782;8.332;2024-03-22T05:00:28;9.80;99.90
59703;DHT22;45570;48.782;8.332;2024-03-22T05:02:55;9.90;99.90
59703;DHT22;45570;48.782;8.332;2024-03-22T05:05:22;9.90;99.90
59703;DHT22;45570;48.782;8.332;2024-03-22T05:07:49;9.80;99.90
59703;DHT22;45570;48.782;8.332;2024-03-22T05:10:16;9.70;99.90
59703;DHT22;45570;48.782;8.332;2024-03-22T05:12:43;9.70;99.90
59703;DHT22;45570;48.782;8.332;2024-03-22T05:15:10;9.70;99.90
59703;DHT22;45570;48.782;8.332;2024-03-22T05:17:39;9.70;99.90
59703;DHT22;45570;48.782;8.332;2024-03-22T05:20:07;9.60;99.90
59703;DHT22;45570;48.782;8.332;2024-03-22T05:22:36;9.60;99.90
59703;DHT22;45570;48.782;8.332;2024-03-22T05:25:04;9.60;99.90
59703;DHT22;45570;48.782;8.332;2024-03-22T05:27:31;9.60;99.90
59703;DHT22;45570;48.782;8.332;2024-03-22T05:29:58;9.70;99.90
59703;DHT22;45570;48.782;8.332;2024-03-22T05:32:26;9.60;99.90
59703;DHT22;45570;48.782;8.332;2024-03-22T05:34:54;9.60;99.90
59703;DHT22;45570;48.782;8.332;2024-03-22T05:37:21;9.60;99.90
59703;DHT22;45570;48.782;8.332;2024-03-22T05:39:48;9.50;99.90
59703;DHT22;45570;48.782;8.332;2024-03-22T05:42:16;9.60;99.90
59703;DHT22;45570;48.782;8.332;2024-03-22T05:44:43;9.50;99.90
59703;DHT22;45570;48.782;8.332;2024-03-22T05:47:10;9.60;99.90
59703;DHT22;45570;48.782;8.332;2024-03-22T05:49:37;9.60;99.90
59703;DHT22;45570;48.782;8.332;2024-03-22T05:52:06;9.60;99.90
59703;DHT22;45570;48.782;8.332;2024-03-22T05:54:32;9.60;99.90
59703;DHT22;45570;48.782;8.332;2024-03-22T05:57:00;9.50;99.90
59703;DHT22;45570;48.782;8.332;2024-03-22T05:59:26;9.70;99.90
59703;DHT22;45570;48.782;8.332;2024-03-22T06:01:54;9.60;99.90
59703;DHT22;45570;48.782;8.332;2024-03-22T06:04:21;9.70;99.90
59703;DHT22;45570;48.782;8.332;2024-03-22T06:06:49;9.70;99.90
59703;DHT22;45570;48.782;8.332;2024-03-22T06:09:17;9.70;99.90
59703;DHT22;45570;48.782;8.332;2024-03-22T06:11:50;9.60;99.90
59703;DHT22;45570;48.782;8.332;2024-03-22T06:14:16;9.70;99.90
59703;DHT22;45570;48.782;8.332;2024-03-22T06:16:44;9.80;99.90
59703;DHT22;45570;48.782;8.332;2024-03-22T06:19:10;9.80;99.90
59703;DHT22;45570;48.782;8.332;2024-03-22T06:21:38;9.90;99.90
59703;DHT22;45570;48.782;8.332;2024-03-22T06:24:05;10.10;99.90
59703;DHT22;45570;48.782;8.332;2024-03-22T06:26:34;10.10;99.90
59703;DHT22;45570;48.782;8.332;2024-03-22T06:29:00;10.20;99.90
59703;DHT22;45570;48.782;8.332;2024-03-22T06:31:28;10.20;99.90
59703;DHT22;45570;48.782;8.332;2024-03-22T06:33:55;10.30;99.90
59703;DHT22;45570;48.782;8.332;2024-03-22T06:36:28;10.30;99.90
59703;DHT22;45570;48.782;8.332;2024-03-22T06:38:54;10.40;99.90
59703;DHT22;45570;48.782;8.332;2024-03-22T06:41:22;10.50;99.90
59703;DHT22;45570;48.782;8.332;2024-03-22T06:43:50;10.50;99.90
59703;DHT22;45570;48.782;8.332;2024-03-22T06:46:17;10.50;99.90
59703;DHT22;45570;48.782;8.332;2024-03-22T06:48:44;10.50;99.90
59703;DHT22;45570;48.782;8.332;2024-03-22T06:51:12;10.60;99.90
59703;DHT22;45570;48.782;8.332;2024-03-22T06:53:39;10.70;99.90
59703;DHT22;45570;48.782;8.332;2024-03-22T06:56:06;10.70;99.90
59703;DHT22;45570;48.782;8.332;2024-03-22T06:58:35;10.70;99.90
59703;DHT22;45570;48.782;8.332;2024-03-22T07:01:04;10.70;99.90
59703;DHT22;45570;48.782;8.332;2024-03-22T07:03:31;10.70;99.90
59703;DHT22;45570;48.782;8.332;2024-03-22T07:05:59;10.70;99.90
59703;DHT22;45570;48.782;8.332;2024-03-22T07:08:26;10.70;99.90
59703;DHT22;45570;48.782;8.332;2024-03-22T07:10:54;10.70;99.90
59703;DHT22;45570;48.782;8.332;2024-03-22T07:13:20;10.60;99.90
59703;DHT22;45570;48.782;8.332;2024-03-22T07:15:48;10.70;99.90
59703;DHT22;45570;48.782;8.332;2024-03-22T07:18:16;10.80;99.90
59703;DHT22;45570;48.782;8.332;2024-03-22T07:20:44;11.00;99.90
59703;DHT22;45570;48.782;8.332;2024-03-22T07:23:11;11.00;99.90
59703;DHT22;45570;48.782;8.332;2024-03-22T07:25:38;11.10;99.90
59703;DHT22;45570;48.782;8.332;2024-03-22T07:28:05;11.20;99.90
59703;DHT22;45570;48.782;8.332;2024-03-22T07:30:33;11.40;99.90
59703;DHT22;45570;48.782;8.332;2024-03-22T07:32:59;11.50;99.90
59703;DHT22;45570;48.782;8.332;2024-03-22T07:35:28;11.50;99.90
59703;DHT22;45570;48.782;8.332;2024-03-22T07:37:55;11.60;99.90
59703;DHT22;45570;48.782;8.332;2024-03-22T07:40:23;11.80;99.90
59703;DHT22;45570;48.782;8.332;2024-03-22T07:42:50;12.00;99.90
59703;DHT22;45570;48.782;8.332;2024-03-22T07:45:18;12.20;99.90
59703;DHT22;45570;48.782;8.332;2024-03-22T07:47:44;12.50;99.90
59703;DHT22;45570;48.782;8.332;2024-03-22T07:50:12;12.80;99.90
59703;DHT22;45570;48.782;8.332;2024-03-22T07:52:42;13.10;99.90
59703;DHT22;45570;48.782;8.332;2024-03-22T17:06:42;15.90;99.90
59703;DHT22;45570;48.782;8.332;2024-03-22T17:09:13;15.80;99.90
59703;DHT22;45570;48.782;8.332;2024-03-22T17:11:40;15.60;99.90
59703;DHT22;45570;48.782;8.332;2024-03-22T17:14:07;15.50;99.90
59703;DHT22;45570;48.782;8.332;2024-03-22T17:16:34;15.50;99.90
59703;DHT22;45570;48.782;8.332;2024-03-22T17:19:01;15.20;99.90
59703;DHT22;45570;48.782;8.332;2024-03-22T17:21:29;15.00;99.90
59703;DHT22;45570;48.782;8.332;2024-03-22T17:23:57;14.80;99.90
59703;DHT22;45570;48.782;8.332;2024-03-22T17:26:25;14.70;99.90
59703;DHT22;45570;48.782;8.332;2024-03-22T17:28:51;14.50;99.90
59703;DHT22;45570;48.782;8.332;2024-03-22T17:31:19;14.50;99.90
59703;DHT22;45570;48.782;8.332;2024-03-22T17:33:45;14.50;99.90
59703;DHT22;45570;48.782;8.332;2024-03-22T17:36:13;14.40;99.90
59703;DHT22;45570;48.782;8.332;2024-03-22T17:38:39;14.50;99.90
59703;DHT22;45570;48.782;8.332;2024-03-22T17:41:09;14.30;99.90
59703;DHT22;45570;48.782;8.332;2024-03-22T17:43:37;14.10;99.90
59703;DHT22;45570;48.782;8.332;2024-03-22T17:46:05;14.10;99.90
59703;DHT22;45570;48.782;8.332;2024-03-22T17:48:32;13.90;99.90
59703;DHT22;45570;48.782;8.332;2024-03-22T17:51:01;13.70;99.90
59703;DHT22;45570;48.782;8.332;2024-03-22T17:53:28;13.60;99.90
59703;DHT22;45570;48.782;8.332;2024-03-22T17:55:56;13.60;99.90
59703;DHT22;45570;48.782;8.332;2024-03-22T17:58:24;13.40;99.90
59703;DHT22;45570;48.782;8.332;2024-03-22T18:00:51;13.20;99.90
59703;DHT22;45570;48.782;8.332;2024-03-22T18:03:18;13.10;99.90
59703;DHT22;45570;48.782;8.332;2024-03-22T18:05:45;12.90;99.90
59703;DHT22;45570;48.782;8.332;2024-03-22T18:08:13;12.80;99.90
59703;DHT22;45570;48.782;8.332;2024-03-22T18:10:40;12.90;99.90
59703;DHT22;45570;48.782;8.332;2024-03-22T18:13:08;12.70;99.90
59703;DHT22;45570;48.782;8.332;2024-03-22T18:15:38;12.50;99.90
59703;DHT22;45570;48.782;8.332;2024-03-22T18:18:06;12.60;99.90
59703;DHT22;45570;48.782;8.332;2024-03-22T18:20:32;12.70;99.90
59703;DHT22;45570;48.782;8.332;2024-03-22T18:23:00;12.40;99.90
59703;DHT22;45570;48.782;8.332;2024-03-22T18:25:27;12.40;99.90
59703;DHT22;45570;48.782;8.332;2024-03-22T18:27:54;12.30;99.90
59703;DHT22;45570;48.782;8.332;2024-03-22T18:30:21;12.20;99.90
59703;DHT22;45570;48.782;8.332;2024-03-22T18:32:50;12.10;99.90
59703;DHT22;45570;48.782;8.332;2024-03-22T18:35:19;12.00;99.90
59703;DHT22;45570;48.782;8.332;2024-03-22T18:37:51;12.00;99.90
59703;DHT22;45570;48.782;8.332;2024-03-22T18:40:21;11.90;99.90
59703;DHT22;45570;48.782;8.332;2024-03-22T18:42:55;11.80;99.90
59703;DHT22;45570;48.782;8.332;2024-03-22T18:45:26;11.80;99.90
59703;DHT22;45570;48.782;8.332;2024-03-22T18:48:02;11.70;99.90
59703;DHT22;45570;48.782;8.332;2024-03-22T18:50:34;11.70;99.90
59703;DHT22;45570;48.782;8.332;2024-03-22T18:53:05;11.70;99.90
59703;DHT22;45570;48.782;8.332;2024-03-22T18:55:34;11.60;99.90
59703;DHT22;45570;48.782;8.332;2024-03-22T18:58:02;11.70;99.90
59703;DHT22;45570;48.782;8.332;2024-03-22T19:00:29;11.60;99.90
59703;DHT22;45570;48.782;8.332;2024-03-22T19:02:58;11.60;99.90
59703;DHT22;45570;48.782;8.332;2024-03-22T19:05:25;11.50;99.90
59703;DHT22;45570;48.782;8.332;2024-03-22T19:07:52;11.40;99.90
59703;DHT22;45570;48.782;8.332;2024-03-22T19:10:19;11.50;99.90
59703;DHT22;45570;48.782;8.332;2024-03-22T19:12:47;11.50;99.90
59703;DHT22;45570;48.782;8.332;2024-03-22T19:15:13;11.50;99.90
59703;DHT22;45570;48.782;8.332;2024-03-22T19:17:41;11.40;99.90
59703;DHT22;45570;48.782;8.332;2024-03-22T19:20:10;11.30;99.90
59703;DHT22;45570;48.782;8.332;2024-03-22T19:22:38;11.30;99.90
59703;DHT22;45570;48.782;8.332;2024-03-22T19:25:04;11.30;99.90
59703;DHT22;45570;48.782;8.332;2024-03-22T19:27:32;11.50;99.90
59703;DHT22;45570;48.782;8.332;2024-03-22T19:29:59;11.60;99.90
59703;DHT22;45570;48.782;8.332;2024-03-22T19:32:26;11.50;99.90
59703;DHT22;45570;48.782;8.332;2024-03-22T19:34:56;11.40;99.90
59703;DHT22;45570;48.782;8.332;2024-03-22T19:37:25;11.20;99.90
59703;DHT22;45570;48.782;8.332;2024-03-22T19:39:51;11.20;99.90
59703;DHT22;45570;48.782;8.332;2024-03-22T19:42:19;11.30;99.90
59703;DHT22;45570;48.782;8.332;2024-03-22T19:44:46;11.40;99.90
59703;DHT22;45570;48.782;8.332;2024-03-22T19:47:13;11.30;99.90
59703;DHT22;45570;48.782;8.332;2024-03-22T19:49:40;11.30;99.90
59703;DHT22;45570;48.782;8.332;2024-03-22T19:52:07;11.00;99.90
59703;DHT22;45570;48.782;8.332;2024-03-22T19:54:35;10.80;99.90
59703;DHT22;45570;48.782;8.332;2024-03-22T19:57:03;10.70;99.90
59703;DHT22;45570;48.782;8.332;2024-03-22T19:59:30;10.70;99.90
59703;DHT22;45570;48.782;8.332;2024-03-22T20:01:57;10.70;99.90
59703;DHT22;45570;48.782;8.332;2024-03-22T20:04:24;10.60;99.90
59703;DHT22;45570;48.782;8.332;2024-03-22T20:06:52;10.60;99.90
59703;DHT22;45570;48.782;8.332;2024-03-22T20:09:18;10.50;99.90
59703;DHT22;45570;48.782;8.332;2024-03-22T20:11:47;10.60;99.90
59703;DHT22;45570;48.782;8.332;2024-03-22T20:14:14;10.50;99.90
59703;DHT22;45570;48.782;8.332;2024-03-22T20:16:41;10.40;99.90
59703;DHT22;45570;48.782;8.332;2024-03-22T20:19:08;10.70;99.90
59703;DHT22;45570;48.782;8.332;2024-03-22T20:21:36;10.70;99.90
59703;DHT22;45570;48.782;8.332;2024-03-22T20:24:02;10.70;99.90
59703;DHT22;45570;48.782;8.332;2024-03-22T20:26:30;10.80;99.90
59703;DHT22;45570;48.782;8.332;2024-03-22T20:28:58;10.90;99.90
59703;DHT22;45570;48.782;8.332;2024-03-22T20:31:26;10.90;99.90
59703;DHT22;45570;48.782;8.332;2024-03-22T20:33:52;11.00;99.90
59703;DHT22;45570;48.782;8.332;2024-03-22T20:36:20;10.90;99.90
59703;DHT22;45570;48.782;8.332;2024-03-22T20:38:47;10.90;99.90
